Dean International
Flight School

Career Spotlight

Mika

Mika

Congratulations to Mika from Khazakstan. She recently sent us this photo of her flying an Airbus airliner.

More...
Mika's Success Story
close

Congratulations to Mika from Khazakstan. She recently sent us this photo of her flying an Airbus airliner.

Mario

Mario

My dreams could not have been realized if I wouldn't have been part of the Dean International family.

More...
Mario's Success Story
close

"My dreams could not have been realized if I wouldn't have been part of the Dean International family. Thank you Robert, thanks to all my co-workers, and thanks to all of my students!"

Fernando

Fernando

I am now working as a First Officer at TACA and am enjoying every moment of it.

More...
Fernando's Success Story
close

"Will never forget my time of flight training at Dean International. I am now working as a First Officer at TACA and am enjoying every moment of it."

Alvaro

Alvaro

Because of the flight time I was able to built while instructing, I got the experience needed to apply to an airline in Colombia.

More...
Alvaro's Success Story
close

Dean alumnus Alvaro Londoño currently flies with Tampa Cargo. He says of his experience at Dean: "I want to take this opportunity to thank you for giving me the chance to build my experience and expand my knowledge in Dean International. Because of the flight time I was able to built flight instructing, I got the experience needed to apply to an airline in Colombia."

Ralph

Ralph

Every Aruban student of Dean International has made it into Tiara Air Aruba, that is very nice.

More...
Ralph's Success Story
close

"Next to me is my Co-Pilot, Elison. This picture was taken on our first flight together, which was almost exactly 5 years after I finished at Dean International. [...] Every Aruban student of Dean International has made it into Tiara Air Aruba. [...] The future looks bright here in Aruba."

Rohaan

Rohaan

The [..] staff will all work diligently to help you finish your certificates as safely and efficiently as possible.

More...
Rohaan's Success Story
close

After receiving very hard times from other flight schools [...], I came to Dean International where Robert Dean personally sat down with me and gave me a financial and chronological look into how much remained to finish my private pilot certificate. Through his hard efforts as an instructor and mentor, I was able to finish my private pilot certificate within one week.

Welcome to Dean International

In over two decades, Dean International has educated over 7,000 pilots from all over the world, including over 1,000 students from India alone. By offering a great training experience, a friendly service staff, an ample variety of aircraft, and by improving constantly, we have become one of the largest, most prestigious FAA 141-approved flight schools in North America. Located in Miami, Florida, USA, our flight school offers an ideal location for year-round, "learn to fly" weather, flight training. Dean International is not only well-equipped to provide services to professional trainees but also caters to General Aviation renters. Visit or contact our headquarters at Kendall-Tamiami Executive Airport located in Miami, FL today to learn more about us, or simply read more about our programs if you are an international student interested in joining our school.

Local Airport Information
TAF FOR KTMB (Issued: Mon, July 28th 2014 6:24 PM UTC)
TAF KTMB 281720Z 2818/2918 21005KT P6SM SCT030 SCT250
      FM282000 22008KT P6SM SCT035 SCT250
      FM290000 24003KT P6SM FEW030 SCT250
      FM290600 25003KT P6SM SKC
     
METAR FOR KTMB (Issued: Mon, July 28th 2014 7:53 PM UTC):
KTMB 281953Z 28007KT 10SM FEW060 36/21 A3003 RMK AO2 SLP167 T03610206

This weather information is provided by the National Weather Service.
It is automatically refreshed every three minutes.
TAF FOR KHST (Issued: Mon, July 28th 2014 4:09 PM UTC)
TAF KHST 2816/2922 22008KT 9999 FEW200 QNH2999INS
      BECMG 2914/2915 28010G15KT 9999 FEW027 QNH3001INS
      BECMG 2919/2920 27010G15KT 9000 -SHRA SCT027 QNH2997INS
      TEMPO 2920/2922 28015G25KT 4800 -TSRA BKN025CB OVC040 TX33/2820Z TN25/2908Z
     
METAR FOR KHST (Issued: Mon, July 28th 2014 7:58 PM UTC):
KHST 281958Z AUTO 12009KT 10SM CLR 33/25 A3003 RMK AO2 SLPNO T03300246

This weather information is provided by the National Weather Service.
It is automatically refreshed every three minutes.
TAF FOR KOPF (Issued: Mon, July 28th 2014 6:24 PM UTC)
TAF KOPF 281720Z 2818/2918 23003KT P6SM SCT035 SCT250
      FM281900 17009KT P6SM SCT035 SCT250
      FM290000 24005KT P6SM FEW030 SCT250
      FM290400 25004KT P6SM SKC
     
METAR FOR KOPF (Issued: Mon, July 28th 2014 7:53 PM UTC):
KOPF 281953Z 28006KT 10SM FEW045 35/20 A3002 RMK AO2 SLP167 T03500200

This weather information is provided by the National Weather Service.
It is automatically refreshed every three minutes.
TAF FOR KMIA (Issued: Mon, July 28th 2014 6:27 PM UTC)
TAF KMIA 281720Z 2818/2918 VRB04KT P6SM FEW030 SCT300
      FM281900 17007KT P6SM SCT035 SCT250
      FM290000 24005KT P6SM FEW030 SCT250
      FM290400 25004KT P6SM SKC
     
METAR FOR KMIA (Issued: Mon, July 28th 2014 7:53 PM UTC):
KMIA 281953Z VRB04KT 10SM FEW055 BKN300 34/21 A3003 RMK AO2 SLP168 T03440206

This weather information is provided by the National Weather Service.
It is automatically refreshed every three minutes.
Design by Ariel Llizo
© Dean International Inc. 2012